Time;durP1;ratioP1;P1;durP2;ratioP2;P2;SDS_P1;SDS_P2;PMS_P1;PMS_P2;Temp;Humidity;BMP_temperature;BMP_pressure;BME280_temperature;BME280_humidity;BME280_pressure;Samples;Min_cycle;Max_cycle;Signal;HPM_P1;HPM_P2
2022/02/18 00:01:13;;;;;;;25.83;8.20;;;;;;;7.20;78.14;99200.31;5067769;28;20033;-70
2022/02/18 00:03:38;;;;;;;32.78;9.05;;;;;;;7.23;78.43;99194.91;5068680;28;20048;-70
2022/02/18 00:06:05;;;;;;;19.33;6.35;;;;;;;7.23;78.08;99197.53;5067411;28;20033;-70
2022/02/18 00:08:30;;;;;;;28.02;7.30;;;;;;;7.25;77.80;99193.94;5067767;28;20131;-70
2022/02/18 00:10:56;;;;;;;24.20;6.60;;;;;;;7.28;77.96;99195.56;5067754;28;20116;-69
2022/02/18 00:13:21;;;;;;;28.27;7.97;;;;;;;7.28;78.00;99195.56;5075750;28;20028;-69
2022/02/18 00:15:46;;;;;;;31.38;7.32;;;;;;;7.30;77.91;99202.44;5069441;28;20039;-69
2022/02/18 00:18:12;;;;;;;29.40;6.93;;;;;;;7.31;77.58;99193.66;5087922;28;20035;-69
2022/02/18 00:20:37;;;;;;;28.58;7.68;;;;;;;7.33;77.60;99188.34;5087605;28;20032;-69
2022/02/18 00:23:05;;;;;;;32.45;7.80;;;;;;;7.35;77.30;99188.28;5087756;28;20038;-69
2022/02/18 00:25:31;;;;;;;32.30;9.38;;;;;;;7.35;77.50;99189.13;5087687;28;20826;-68
2022/02/18 00:27:59;;;;;;;29.17;6.50;;;;;;;7.36;77.48;99188.22;5088132;28;20042;-69
2022/02/18 00:30:25;;;;;;;19.27;8.23;;;;;;;7.37;77.17;99181.19;5087437;28;20061;-69
2022/02/18 00:32:51;;;;;;;31.60;7.95;;;;;;;7.37;77.57;99187.28;5084476;28;20044;-69
2022/02/18 00:35:19;;;;;;;31.25;8.40;;;;;;;7.39;76.87;99168.88;5087220;28;20788;-69
2022/02/18 00:37:47;;;;;;;22.83;8.15;;;;;;;7.41;77.18;99162.63;5085505;28;20040;-69
2022/02/18 00:40:12;;;;;;;37.45;9.30;;;;;;;7.41;76.71;99162.63;5085090;28;20031;-69
2022/02/18 00:42:38;;;;;;;31.23;8.45;;;;;;;7.41;76.36;99162.63;5088125;28;20028;-69
2022/02/18 00:45:04;;;;;;;34.67;10.02;;;;;;;7.42;76.55;99166.94;5087103;28;20063;-69
2022/02/18 00:47:29;;;;;;;33.08;6.70;;;;;;;7.41;76.62;99160.00;5087592;28;20032;-69
2022/02/18 00:49:54;;;;;;;25.60;6.72;;;;;;;7.44;76.29;99159.00;5087215;28;20055;-69
2022/02/18 00:52:20;;;;;;;26.73;7.53;;;;;;;7.43;76.49;99162.53;5077792;28;20032;-69
2022/02/18 00:54:45;;;;;;;24.40;6.93;;;;;;;7.42;76.35;99166.94;5085227;28;20039;-69
2022/02/18 00:57:10;;;;;;;21.63;6.72;;;;;;;7.44;76.18;99177.38;5088160;28;20027;-69
2022/02/18 00:59:36;;;;;;;22.70;7.13;;;;;;;7.44;76.16;99165.09;5086461;28;20631;-69
2022/02/18 01:02:01;;;;;;;30.67;6.47;;;;;;;7.43;76.11;99160.78;5085966;28;20035;-69
2022/02/18 01:04:27;;;;;;;24.38;6.35;;;;;;;7.44;76.10;99169.50;5087709;28;20040;-69
2022/02/18 01:06:52;;;;;;;22.05;6.57;;;;;;;7.43;75.77;99168.66;5067117;28;20028;-69
2022/02/18 01:09:17;;;;;;;22.92;5.50;;;;;;;7.40;76.12;99147.81;5086485;28;20035;-69
2022/02/18 01:11:43;;;;;;;26.70;6.32;;;;;;;7.41;76.07;99138.16;5087052;28;20028;-69
2022/02/18 01:14:09;;;;;;;24.48;6.93;;;;;;;7.37;76.12;99140.09;5088096;28;20737;-69
2022/02/18 01:16:34;;;;;;;28.77;6.70;;;;;;;7.31;76.04;99138.59;5086897;28;20028;-69
2022/02/18 01:18:59;;;;;;;26.48;7.18;;;;;;;7.33;76.23;99138.50;5086973;28;20028;-69
2022/02/18 01:21:25;;;;;;;22.52;7.60;;;;;;;7.31;76.42;99129.91;5086501;28;20036;-69
2022/02/18 01:23:50;;;;;;;22.33;5.53;;;;;;;7.31;76.15;99132.53;5087539;28;20052;-69
2022/02/18 01:26:16;;;;;;;25.88;6.95;;;;;;;7.29;76.46;99122.09;5086942;28;20028;-69
2022/02/18 01:28:41;;;;;;;21.45;6.00;;;;;;;7.29;76.15;99116.00;5069637;28;20158;-69
2022/02/18 01:31:07;;;;;;;31.65;6.72;;;;;;;7.27;75.89;99121.31;5086500;28;20028;-69
2022/02/18 01:33:33;;;;;;;20.15;5.18;;;;;;;7.28;75.83;99106.41;5087310;28;20130;-69
2022/02/18 01:35:58;;;;;;;28.35;5.90;;;;;;;7.29;75.81;99098.50;5086852;28;20028;-69
2022/02/18 01:38:24;;;;;;;25.02;6.82;;;;;;;7.29;76.10;99097.66;5087236;28;20040;-69
2022/02/18 01:40:49;;;;;;;36.70;8.00;;;;;;;7.28;75.73;99109.03;5086658;28;20036;-69
2022/02/18 01:43:14;;;;;;;22.65;6.00;;;;;;;7.31;75.77;99101.06;5087379;28;20043;-69
2022/02/18 01:45:40;;;;;;;22.75;6.65;;;;;;;7.31;75.21;99101.91;5087358;28;20032;-68
2022/02/18 01:48:05;;;;;;;39.13;6.40;;;;;;;7.31;75.19;99096.66;5086906;28;20550;-69
2022/02/18 01:50:31;;;;;;;27.65;6.43;;;;;;;7.32;75.42;99097.50;5086942;28;20028;-69
2022/02/18 01:52:58;;;;;;;19.27;6.50;;;;;;;7.31;75.43;99114.16;5086089;28;20073;-69
2022/02/18 01:55:24;;;;;;;30.92;9.00;;;;;;;7.32;75.51;99106.22;5086639;28;20043;-69
2022/02/18 01:57:54;;;;;;;27.23;7.18;;;;;;;7.31;75.24;99106.28;5069029;28;20024;-69
2022/02/18 02:00:23;;;;;;;31.20;6.32;;;;;;;7.32;75.09;99102.75;5086924;28;20039;-69
2022/02/18 02:02:49;;;;;;;20.45;8.45;;;;;;;7.32;75.41;99111.44;5047941;28;20482;-69
2022/02/18 02:05:15;;;;;;;23.08;6.30;;;;;;;7.32;75.10;99113.22;5085946;28;20044;-69
2022/02/18 02:07:42;;;;;;;28.85;6.05;;;;;;;7.32;74.97;99098.34;5085322;28;20048;-69
2022/02/18 02:10:08;;;;;;;24.83;6.35;;;;;;;7.35;74.97;99065.03;5083802;28;20547;-69
2022/02/18 02:12:42;;;;;;;18.58;6.05;;;;;;;7.37;75.31;99078.94;5090346;28;20047;-70
2022/02/18 02:15:09;;;;;;;17.77;4.45;;;;;;;7.36;74.56;99075.47;5090542;28;20496;-70
2022/02/18 02:17:36;;;;;;;20.23;5.78;;;;;;;7.38;74.82;99081.47;5090557;28;20131;-70
2022/02/18 02:20:06;;;;;;;22.58;5.35;;;;;;;7.38;74.53;99072.75;5071514;28;20117;-69
2022/02/18 02:22:31;;;;;;;22.73;5.40;;;;;;;7.42;74.82;99069.91;5090612;28;20105;-69
2022/02/18 02:24:58;;;;;;;22.35;6.07;;;;;;;7.42;74.92;99053.34;5090202;28;20056;-69
2022/02/18 02:27:23;;;;;;;24.48;6.55;;;;;;;7.40;74.64;99044.69;5090297;28;20031;-70
2022/02/18 02:29:49;;;;;;;27.88;7.78;;;;;;;7.41;74.54;99042.00;5090192;28;20036;-70
2022/02/18 02:32:15;;;;;;;28.75;7.78;;;;;;;7.41;74.20;99030.63;5090431;28;20040;-69
2022/02/18 02:34:42;;;;;;;20.45;5.70;;;;;;;7.39;74.04;99027.28;5090011;28;20127;-70
2022/02/18 02:37:07;;;;;;;24.65;5.30;;;;;;;7.42;73.87;99025.34;5090166;28;20115;-70
2022/02/18 02:39:33;;;;;;;24.42;7.60;;;;;;;7.39;74.06;99016.78;5089725;28;20456;-70
2022/02/18 02:42:04;;;;;;;18.70;6.28;;;;;;;7.40;73.90;98997.50;5072509;28;20086;-69
2022/02/18 02:44:30;;;;;;;25.30;6.70;;;;;;;7.41;73.93;99000.03;5089836;28;20501;-70
2022/02/18 02:46:56;;;;;;;28.15;6.28;;;;;;;7.43;73.85;98982.47;5089609;28;20062;-70
2022/02/18 02:49:21;;;;;;;19.10;4.40;;;;;;;7.44;74.17;98971.03;5062667;28;20113;-69
2022/02/18 02:51:47;;;;;;;31.35;8.38;;;;;;;7.43;73.25;98974.59;5069781;28;20044;-69
2022/02/18 02:54:12;;;;;;;23.92;6.90;;;;;;;7.43;73.58;98964.13;5069138;28;20037;-70
2022/02/18 02:56:38;;;;;;;18.50;5.25;;;;;;;7.43;73.54;98958.88;5069438;28;20498;-69
2022/02/18 02:59:04;;;;;;;25.75;5.80;;;;;;;7.43;73.26;98960.63;5069378;28;20301;-69
2022/02/18 03:01:29;;;;;;;28.02;5.82;;;;;;;7.46;73.32;98955.25;5071590;28;20554;-69
2022/02/18 03:03:55;;;;;;;30.00;5.78;;;;;;;7.48;72.73;98948.13;5069365;28;20064;-70
2022/02/18 03:06:20;;;;;;;17.15;4.43;;;;;;;7.51;73.13;98942.75;5069003;28;20856;-69
2022/02/18 03:08:45;;;;;;;20.25;4.72;;;;;;;7.53;73.00;98933.88;5069428;28;20054;-69
2022/02/18 03:11:16;;;;;;;28.00;7.07;;;;;;;7.56;72.72;98925.00;5068618;28;20115;-69
2022/02/18 03:13:49;;;;;;;18.83;5.40;;;;;;;7.58;72.93;98922.28;5069055;28;20043;-70
2022/02/18 03:16:15;;;;;;;22.08;5.65;;;;;;;7.54;72.42;98905.88;5068822;28;20028;-69
2022/02/18 03:18:41;;;;;;;20.27;5.40;;;;;;;7.54;72.20;98895.38;5068866;28;20060;-69
2022/02/18 03:21:07;;;;;;;31.60;6.53;;;;;;;7.54;72.35;98890.13;5068805;28;20052;-69
2022/02/18 03:23:33;;;;;;;25.10;5.97;;;;;;;7.55;72.34;98870.00;5068533;28;20048;-70
2022/02/18 03:25:58;;;;;;;17.60;4.65;;;;;;;7.53;71.97;98876.19;5069689;28;20028;-69
2022/02/18 03:28:23;;;;;;;24.25;6.40;;;;;;;7.50;71.93;98870.22;5069106;28;20033;-70
2022/02/18 03:30:49;;;;;;;14.48;4.88;;;;;;;7.48;72.27;98853.72;5068687;28;20064;-70
2022/02/18 03:33:14;;;;;;;22.15;4.82;;;;;;;7.48;72.12;98854.59;5068840;28;20033;-69
2022/02/18 03:35:41;;;;;;;17.23;6.78;;;;;;;7.48;72.40;98843.22;5068364;28;20090;-69
2022/02/18 03:38:07;;;;;;;23.30;5.70;;;;;;;7.47;72.25;98825.81;5069285;28;20560;-69
2022/02/18 03:40:33;;;;;;;28.00;8.23;;;;;;;7.48;71.96;98828.38;5068474;28;20124;-69
2022/02/18 03:42:59;;;;;;;32.38;6.10;;;;;;;7.50;71.83;98838.75;5069496;28;20044;-69
2022/02/18 03:45:26;;;;;;;13.27;5.30;;;;;;;7.53;72.11;98843.81;5050354;28;20116;-69
2022/02/18 03:47:51;;;;;;;20.33;4.63;;;;;;;7.53;72.26;98830.72;5068768;28;20048;-69
2022/02/18 03:50:16;;;;;;;17.75;4.63;;;;;;;7.53;71.94;98828.97;5067375;28;20032;-69
2022/02/18 03:52:42;;;;;;;26.27;5.85;;;;;;;7.55;71.77;98821.00;5068972;28;20115;-69
2022/02/18 03:55:07;;;;;;;23.10;5.53;;;;;;;7.53;71.40;98815.84;5049222;28;20056;-69
2022/02/18 03:57:33;;;;;;;21.92;6.30;;;;;;;7.51;71.39;98817.69;5068214;28;20032;-69
2022/02/18 03:59:58;;;;;;;14.70;4.38;;;;;;;7.53;71.02;98799.25;5068396;28;20028;-69
2022/02/18 04:02:23;;;;;;;27.50;6.97;;;;;;;7.52;70.69;98792.31;5068268;28;20048;-69
2022/02/18 04:04:49;;;;;;;16.52;5.03;;;;;;;7.55;70.77;98786.06;5067869;28;20044;-69
2022/02/18 04:07:14;;;;;;;18.55;5.68;;;;;;;7.56;70.74;98779.91;5068759;28;20068;-70
2022/02/18 04:09:39;;;;;;;16.10;4.30;;;;;;;7.57;70.17;98764.06;5068078;28;20619;-70
2022/02/18 04:12:05;;;;;;;16.52;4.63;;;;;;;7.55;69.19;98747.56;5050267;28;20449;-70
2022/02/18 04:14:31;;;;;;;22.90;4.78;;;;;;;7.55;69.07;98741.47;5068522;28;20037;-70
2022/02/18 04:16:56;;;;;;;20.42;5.82;;;;;;;7.57;69.00;98747.50;5067803;28;20632;-70
2022/02/18 04:19:22;;;;;;;12.32;4.10;;;;;;;7.58;68.69;98744.81;5068408;28;20040;-70
2022/02/18 04:21:48;;;;;;;20.00;4.13;;;;;;;7.61;68.33;98734.13;5088096;28;20060;-70
2022/02/18 04:24:13;;;;;;;24.92;6.03;;;;;;;7.66;68.21;98739.97;5088250;28;20039;-70
2022/02/18 04:26:39;;;;;;;12.70;4.65;;;;;;;7.70;68.42;98732.78;5088060;28;20047;-70
2022/02/18 04:29:04;;;;;;;16.25;4.32;;;;;;;7.73;68.37;98727.38;5087877;28;20042;-70
2022/02/18 04:31:29;;;;;;;12.48;4.60;;;;;;;7.72;67.77;98715.19;5088342;28;20044;-70
2022/02/18 04:33:55;;;;;;;16.38;5.63;;;;;;;7.72;68.14;98715.19;5087993;28;20028;-70
2022/02/18 04:36:20;;;;;;;19.77;4.43;;;;;;;7.75;67.90;98707.13;5088011;28;20043;-70
2022/02/18 04:38:45;;;;;;;19.80;4.88;;;;;;;7.79;67.84;98690.31;5088115;28;20052;-70
2022/02/18 04:41:11;;;;;;;27.38;5.60;;;;;;;7.83;68.39;98677.88;5087412;28;20031;-70
2022/02/18 04:43:36;;;;;;;14.10;4.57;;;;;;;7.85;68.17;98678.59;5087544;28;20040;-70
2022/02/18 04:46:02;;;;;;;20.63;5.45;;;;;;;7.85;68.57;98670.75;5087687;28;20044;-70
2022/02/18 04:48:27;;;;;;;18.10;5.00;;;;;;;7.88;69.36;98667.97;5087568;28;20032;-70
2022/02/18 04:50:53;;;;;;;21.80;5.28;;;;;;;7.90;69.94;98659.06;5086737;28;20498;-70
2022/02/18 04:53:18;;;;;;;15.38;4.78;;;;;;;7.93;70.70;98660.69;5087997;28;20393;-70
2022/02/18 04:55:43;;;;;;;27.00;6.43;;;;;;;7.95;70.74;98657.03;5082692;28;20482;-70
2022/02/18 04:58:10;;;;;;;19.17;6.05;;;;;;;8.00;70.78;98658.53;5069388;28;20060;-70
2022/02/18 05:00:35;;;;;;;19.48;5.93;;;;;;;7.99;71.41;98659.47;5066919;28;20032;-70
2022/02/18 05:03:00;;;;;;;30.25;6.30;;;;;;;7.99;72.11;98647.19;5067616;28;20051;-70
2022/02/18 05:05:26;;;;;;;21.65;6.05;;;;;;;8.00;71.91;98643.66;5066400;28;20044;-70
2022/02/18 05:07:51;;;;;;;23.13;7.57;;;;;;;7.94;73.26;98623.00;5067522;28;20119;-70
2022/02/18 05:10:16;;;;;;;15.27;5.45;;;;;;;7.93;73.98;98606.41;5065621;28;20511;-70
2022/02/18 05:12:42;;;;;;;20.10;5.65;;;;;;;7.91;74.34;98603.03;5067563;28;20036;-70
2022/02/18 05:15:08;;;;;;;19.83;6.63;;;;;;;7.89;75.01;98604.88;5066668;28;20024;-70
2022/02/18 05:17:34;;;;;;;23.25;5.97;;;;;;;7.90;75.03;98597.84;5067964;28;20055;-70
2022/02/18 05:20:00;;;;;;;22.63;7.13;;;;;;;7.87;76.00;98582.28;5066400;28;20028;-70
2022/02/18 05:22:25;;;;;;;26.33;8.45;;;;;;;7.88;76.26;98582.22;5067039;28;20051;-70
2022/02/18 05:24:51;;;;;;;19.17;5.55;;;;;;;7.87;76.58;98558.69;5066578;28;20148;-70
2022/02/18 05:27:16;;;;;;;24.00;5.75;;;;;;;7.83;76.68;98559.81;5067330;28;20086;-70
2022/02/18 05:29:42;;;;;;;21.83;5.72;;;;;;;7.81;76.38;98554.63;5066448;28;20398;-70
2022/02/18 05:32:08;;;;;;;23.92;7.07;;;;;;;7.81;76.65;98545.94;5066999;28;20055;-70
2022/02/18 05:34:33;;;;;;;28.40;6.70;;;;;;;7.80;76.53;98531.09;5067439;28;20068;-70
2022/02/18 05:36:59;;;;;;;31.23;6.40;;;;;;;7.80;76.38;98515.34;5064895;28;20052;-70
2022/02/18 05:39:24;;;;;;;25.35;8.05;;;;;;;7.77;75.79;98503.25;5066021;28;20032;-70
2022/02/18 05:41:50;;;;;;;24.77;6.60;;;;;;;7.79;75.80;98501.41;5049190;28;20195;-71
2022/02/18 05:44:16;;;;;;;24.77;6.30;;;;;;;7.80;75.26;98487.38;5066008;28;20051;-70
2022/02/18 05:46:41;;;;;;;15.48;5.38;;;;;;;7.83;75.84;98483.72;5069516;28;20518;-70
2022/02/18 05:49:07;;;;;;;28.45;7.80;;;;;;;7.86;75.82;98476.50;5069453;28;20056;-71
2022/02/18 05:51:33;;;;;;;22.15;6.20;;;;;;;7.89;75.15;98465.81;5071079;28;20036;-69
2022/02/18 05:53:59;;;;;;;27.58;6.93;;;;;;;7.89;74.88;98462.34;5070357;28;20437;-69
2022/02/18 05:56:24;;;;;;;28.75;7.80;;;;;;;7.89;75.07;98454.47;5070272;28;20032;-69
2022/02/18 05:58:49;;;;;;;22.25;6.43;;;;;;;7.93;75.49;98443.72;5070237;28;20529;-69
2022/02/18 06:01:15;;;;;;;20.17;5.55;;;;;;;7.92;75.42;98434.13;5070492;28;20116;-69
2022/02/18 06:03:40;;;;;;;25.92;7.75;;;;;;;7.98;75.15;98429.47;5070166;28;20029;-69
2022/02/18 06:06:05;;;;;;;26.83;7.57;;;;;;;7.98;74.53;98408.47;5070888;28;20648;-70
2022/02/18 06:08:31;;;;;;;24.02;5.35;;;;;;;8.02;74.89;98402.09;5070217;28;20530;-70
2022/02/18 06:10:56;;;;;;;18.05;6.65;;;;;;;8.05;75.07;98408.00;5069526;28;20056;-70
2022/02/18 06:13:22;;;;;;;18.83;6.03;;;;;;;8.10;74.75;98384.94;5069887;28;20123;-70
2022/02/18 06:15:47;;;;;;;26.48;7.55;;;;;;;8.16;75.23;98396.84;5050149;28;20032;-68
2022/02/18 06:18:13;;;;;;;22.02;6.18;;;;;;;8.22;74.71;98385.97;5051914;28;20802;-68
2022/02/18 06:20:38;;;;;;;26.92;6.93;;;;;;;8.28;74.66;98379.50;5069397;28;20037;-69
2022/02/18 06:23:03;;;;;;;19.13;6.82;;;;;;;8.32;73.83;98381.00;5081626;28;20052;-70
2022/02/18 06:25:29;;;;;;;20.67;5.75;;;;;;;8.37;74.10;98390.28;5089727;28;20075;-69
2022/02/18 06:28:09;;;;;;;17.35;6.68;;;;;;;8.45;74.44;98389.81;5090522;28;20040;-68
2022/02/18 06:30:35;;;;;;;22.55;6.00;;;;;;;8.48;74.06;98386.16;5089751;28;20058;-69
2022/02/18 06:33:01;;;;;;;28.67;6.68;;;;;;;8.51;74.67;98389.41;5090028;28;20032;-69
2022/02/18 06:35:26;;;;;;;24.17;6.15;;;;;;;8.54;74.83;98372.63;5089836;28;20035;-70
2022/02/18 06:37:52;;;;;;;24.45;6.35;;;;;;;8.56;74.99;98357.59;5090461;28;20048;-69
2022/02/18 06:40:17;;;;;;;24.88;6.15;;;;;;;8.58;75.57;98355.72;5089960;28;20024;-69
2022/02/18 06:42:42;;;;;;;27.17;5.45;;;;;;;8.60;75.41;98331.03;5089704;28;20031;-69
2022/02/18 06:45:08;;;;;;;16.33;5.50;;;;;;;8.63;75.67;98316.03;5089661;28;20036;-69
2022/02/18 06:47:34;;;;;;;13.10;4.25;;;;;;;8.68;76.17;98311.31;5087690;28;20081;-68
2022/02/18 06:49:59;;;;;;;14.73;4.07;;;;;;;8.72;75.65;98299.69;5089127;28;20040;-69
2022/02/18 06:52:24;;;;;;;15.63;3.92;;;;;;;8.75;76.60;98291.59;5089123;28;20059;-70
2022/02/18 06:54:50;;;;;;;19.77;5.30;;;;;;;8.79;76.46;98296.53;5087595;28;20047;-72
2022/02/18 06:57:15;;;;;;;16.50;6.10;;;;;;;8.81;76.48;98301.69;5087134;28;20492;-70
2022/02/18 06:59:40;;;;;;;17.05;5.13;;;;;;;8.84;76.46;98295.41;5089573;28;20028;-70
2022/02/18 07:02:07;;;;;;;18.23;5.00;;;;;;;8.89;76.56;98288.91;5061302;28;20660;-70
2022/02/18 07:04:33;;;;;;;13.38;4.65;;;;;;;8.94;76.56;98280.72;5079028;28;20579;-70
2022/02/18 07:06:58;;;;;;;11.63;4.22;;;;;;;8.96;76.46;98294.59;5067146;28;20032;-70
2022/02/18 07:09:24;;;;;;;12.48;4.13;;;;;;;8.98;77.54;98292.69;5089345;28;20024;-70
2022/02/18 07:11:49;;;;;;;13.32;4.28;;;;;;;9.00;77.62;98291.63;5090077;28;20536;-70
2022/02/18 07:14:14;;;;;;;9.23;3.67;;;;;;;9.04;77.93;98281.78;5090092;28;20480;-70
2022/02/18 07:16:41;;;;;;;9.75;3.00;;;;;;;9.06;77.30;98282.53;5089360;28;20056;-71
2022/02/18 07:19:16;;;;;;;11.27;4.20;;;;;;;9.09;77.27;98278.84;5089332;28;20028;-71
2022/02/18 07:21:42;;;;;;;15.93;3.90;;;;;;;9.08;77.82;98283.25;5071010;28;20024;-70
2022/02/18 07:24:09;;;;;;;11.77;3.28;;;;;;;9.08;78.79;98287.66;5089350;28;20039;-69
2022/02/18 07:26:35;;;;;;;9.90;3.10;;;;;;;9.02;80.58;98278.41;5089054;28;20579;-69
2022/02/18 07:29:01;;;;;;;9.25;3.60;;;;;;;8.96;80.43;98274.41;5088984;28;20039;-68
2022/02/18 07:31:26;;;;;;;7.80;2.97;;;;;;;8.94;81.04;98270.19;5089250;28;20032;-69
2022/02/18 07:33:52;;;;;;;10.98;3.53;;;;;;;8.93;81.20;98263.25;5088879;28;20024;-71
2022/02/18 07:36:17;;;;;;;13.75;4.80;;;;;;;8.96;80.73;98253.38;5088631;28;20489;-70
2022/02/18 07:38:42;;;;;;;12.40;3.05;;;;;;;8.97;81.04;98247.16;5089154;28;20035;-69
2022/02/18 07:41:08;;;;;;;9.82;3.08;;;;;;;8.99;81.27;98254.97;5088895;28;20417;-70
2022/02/18 07:43:33;;;;;;;8.60;3.30;;;;;;;8.99;81.35;98247.91;5088339;28;20036;-70
2022/02/18 07:46:00;;;;;;;7.30;2.90;;;;;;;9.07;80.95;98230.78;5088608;28;20056;-70
2022/02/18 07:48:25;;;;;;;5.07;2.47;;;;;;;9.09;80.90;98218.38;5088839;28;20044;-70
2022/02/18 07:50:51;;;;;;;10.23;2.70;;;;;;;9.15;80.78;98213.50;5088249;28;20032;-70
2022/02/18 07:53:16;;;;;;;8.48;2.65;;;;;;;9.15;80.77;98213.50;5088748;28;20030;-70
2022/02/18 07:55:42;;;;;;;8.20;2.05;;;;;;;9.18;81.58;98200.19;5088185;28;20032;-70
2022/02/18 07:58:07;;;;;;;3.90;2.03;;;;;;;9.21;81.19;98213.09;5089105;28;20039;-70
2022/02/18 08:00:33;;;;;;;5.90;2.17;;;;;;;9.24;81.43;98196.28;5087938;28;20416;-70
2022/02/18 08:02:59;;;;;;;5.57;2.33;;;;;;;9.29;81.33;98188.06;5088329;28;20056;-70
2022/02/18 08:05:24;;;;;;;3.40;1.73;;;;;;;9.34;80.81;98178.06;5088245;28;20612;-70
2022/02/18 08:07:50;;;;;;;2.28;1.35;;;;;;;9.37;80.56;98169.97;5088295;28;20032;-70
2022/02/18 08:10:15;;;;;;;3.75;1.50;;;;;;;9.37;80.86;98173.44;5087774;28;20046;-70
2022/02/18 08:12:40;;;;;;;4.18;1.70;;;;;;;9.36;81.20;98170.91;5088628;28;20032;-70
2022/02/18 08:15:06;;;;;;;5.45;2.45;;;;;;;9.40;81.42;98156.59;5088507;28;20511;-70
2022/02/18 08:17:38;;;;;;;1.70;1.23;;;;;;;9.45;81.74;98157.09;5088184;28;20052;-70
2022/02/18 08:20:08;;;;;;;2.83;1.40;;;;;;;9.51;81.47;98146.16;5087741;28;20039;-70
2022/02/18 08:22:33;;;;;;;7.28;1.38;;;;;;;9.59;81.11;98137.72;5088376;28;20044;-71
2022/02/18 08:25:00;;;;;;;1.63;1.00;;;;;;;9.61;81.40;98130.56;5087857;28;20063;-70
2022/02/18 08:27:26;;;;;;;2.47;1.50;;;;;;;9.65;80.96;98132.03;5069953;28;20082;-69
2022/02/18 08:29:51;;;;;;;3.75;1.10;;;;;;;9.74;81.06;98127.88;5086908;28;20042;-70
2022/02/18 08:32:17;;;;;;;3.17;1.30;;;;;;;9.78;81.11;98118.81;5088442;28;20028;-71
2022/02/18 08:34:42;;;;;;;1.25;1.10;;;;;;;9.83;80.77;98103.53;5087782;28;20101;-70
2022/02/18 08:37:07;;;;;;;2.95;1.38;;;;;;;9.89;80.20;98098.66;5089313;28;20032;-70
2022/02/18 08:39:33;;;;;;;1.85;1.05;;;;;;;10.00;80.19;98103.13;5087732;28;20055;-69
2022/02/18 08:41:58;;;;;;;3.22;1.40;;;;;;;10.06;79.52;98088.66;5088351;28;20070;-71
2022/02/18 08:44:23;;;;;;;2.45;1.60;;;;;;;10.10;79.70;98074.31;5087904;28;20155;-70
2022/02/18 08:46:49;;;;;;;2.22;1.30;;;;;;;10.18;79.62;98095.66;5086804;28;20369;-71
2022/02/18 08:49:14;;;;;;;4.30;1.60;;;;;;;10.24;78.83;98075.94;5087224;28;20455;-71
2022/02/18 08:51:40;;;;;;;1.92;1.30;;;;;;;10.30;79.14;98080.75;5087577;28;20028;-70
2022/02/18 08:54:06;;;;;;;2.00;1.42;;;;;;;10.37;78.62;98073.25;5083295;28;20028;-70
2022/02/18 08:56:31;;;;;;;4.00;1.70;;;;;;;10.46;78.78;98057.56;5066975;28;20450;-70
2022/02/18 08:58:57;;;;;;;2.88;1.40;;;;;;;10.52;77.81;98050.97;5067316;28;20059;-71
2022/02/18 09:01:26;;;;;;;2.90;2.53;;;;;;;10.63;77.68;98047.50;5066926;28;20436;-70
2022/02/18 09:03:51;;;;;;;1.33;1.23;;;;;;;10.69;77.68;98039.97;5067996;28;20497;-70
2022/02/18 09:06:17;;;;;;;3.08;1.20;;;;;;;10.74;77.48;98035.19;5068163;28;20078;-69
2022/02/18 09:08:42;;;;;;;4.97;2.60;;;;;;;10.78;77.15;98025.25;5069256;28;20032;-69
2022/02/18 09:11:08;;;;;;;4.53;1.05;;;;;;;10.85;77.07;98047.50;5067869;28;20070;-69
2022/02/18 09:13:33;;;;;;;6.18;1.40;;;;;;;10.94;76.61;98025.72;5069471;28;20454;-70
2022/02/18 09:15:58;;;;;;;1.85;1.10;;;;;;;11.01;76.19;98020.78;5067107;28;20518;-70
2022/02/18 09:18:24;;;;;;;2.17;1.23;;;;;;;11.06;76.07;98018.63;5049895;28;20405;-70
2022/02/18 09:20:49;;;;;;;3.17;1.20;;;;;;;11.14;75.91;97996.91;5066210;28;20059;-69
2022/02/18 09:23:16;;;;;;;2.22;1.17;;;;;;;11.19;75.42;98002.66;5067189;28;20032;-70
2022/02/18 09:25:42;;;;;;;3.92;1.50;;;;;;;11.25;74.68;97988.13;5067811;28;20517;-70
2022/02/18 09:28:08;;;;;;;1.95;1.20;;;;;;;11.31;74.74;97980.56;5067708;28;20028;-70
2022/02/18 09:30:37;;;;;;;3.72;1.40;;;;;;;11.42;74.69;97973.56;5066746;28;20039;-70
2022/02/18 09:33:03;;;;;;;1.33;1.08;;;;;;;11.50;73.77;97968.53;5067586;28;20418;-70
2022/02/18 09:35:28;;;;;;;1.13;1.02;;;;;;;11.58;73.69;97971.34;5067596;28;20063;-70
2022/02/18 09:37:54;;;;;;;4.82;1.10;;;;;;;11.67;73.03;97967.97;5066197;28;20116;-70
2022/02/18 09:40:20;;;;;;;1.83;1.13;;;;;;;11.74;72.92;97957.72;5066321;28;20032;-70
2022/02/18 09:42:47;;;;;;;4.25;1.75;;;;;;;11.78;72.83;97965.25;5066958;28;20033;-69
2022/02/18 09:45:13;;;;;;;2.42;1.50;;;;;;;11.87;72.13;97950.50;5066447;28;20039;-69
2022/02/18 09:47:43;;;;;;;1.33;1.00;;;;;;;11.92;72.13;97956.22;5067077;28;20032;-70
2022/02/18 09:50:09;;;;;;;2.05;1.17;;;;;;;12.01;72.26;97938.75;5066453;28;20753;-70
2022/02/18 09:52:35;;;;;;;1.73;1.10;;;;;;;12.07;72.16;97942.69;5066340;28;20036;-71
2022/02/18 09:55:00;;;;;;;2.40;1.10;;;;;;;12.07;71.21;97943.53;5066025;28;20102;-70
2022/02/18 09:57:26;;;;;;;1.48;0.80;;;;;;;12.08;71.75;97936.44;5066732;28;20043;-69
2022/02/18 09:59:52;;;;;;;1.45;1.23;;;;;;;12.17;71.62;97933.00;5066161;28;20033;-70
2022/02/18 10:02:18;;;;;;;1.58;0.82;;;;;;;12.17;71.27;97928.56;5066963;28;20039;-69
2022/02/18 10:04:44;;;;;;;1.10;1.00;;;;;;;12.32;71.35;97918.47;5066640;28;20028;-70
2022/02/18 10:07:09;;;;;;;1.92;1.13;;;;;;;12.40;70.42;97931.88;5067146;28;20040;-70
2022/02/18 10:09:45;;;;;;;2.50;1.13;;;;;;;12.42;70.31;97910.59;5065887;28;20123;-69
2022/02/18 10:12:12;;;;;;;1.13;1.02;;;;;;;12.50;69.38;97904.63;5067285;28;20056;-70
2022/02/18 10:14:57;;;;;;;3.75;1.17;;;;;;;12.59;68.84;97883.50;5067177;28;20094;-70
2022/02/18 10:17:24;;;;;;;6.28;1.40;;;;;;;12.65;69.19;97888.28;5068533;28;20036;-70
2022/02/18 10:19:54;;;;;;;2.97;1.00;;;;;;;12.66;68.68;97879.34;5067701;28;20032;-70
2022/02/18 10:22:27;;;;;;;1.40;0.80;;;;;;;12.77;68.56;97881.03;5079501;28;20077;-71
2022/02/18 10:24:54;;;;;;;1.15;1.00;;;;;;;12.71;68.58;97872.84;5086666;28;20090;-70
2022/02/18 10:27:42;;;;;;;0.98;0.90;;;;;;;12.76;67.66;97876.75;5086480;28;20032;-70
2022/02/18 10:30:08;;;;;;;3.70;1.00;;;;;;;12.85;67.43;97869.81;5086614;28;20115;-69
2022/02/18 10:32:40;;;;;;;1.63;1.05;;;;;;;13.00;67.34;97859.66;5088798;28;20788;-70
2022/02/18 10:35:06;;;;;;;2.83;1.42;;;;;;;12.97;66.68;97858.13;5089906;28;20413;-70
2022/02/18 10:37:34;;;;;;;3.10;1.23;;;;;;;13.02;67.10;97882.34;5089462;28;20042;-69
2022/02/18 10:40:10;;;;;;;1.67;1.30;;;;;;;12.98;66.66;97867.72;5071550;28;20035;-69
2022/02/18 10:42:36;;;;;;;1.15;0.90;;;;;;;12.88;66.27;97867.72;5090625;28;20122;-70
2022/02/18 10:45:19;;;;;;;1.67;1.25;;;;;;;12.91;66.91;97863.97;5089825;28;20115;-69
2022/02/18 10:47:46;;;;;;;2.47;0.90;;;;;;;12.87;67.06;97855.47;5086138;28;20032;-70
2022/02/18 10:50:28;;;;;;;1.00;0.90;;;;;;;12.85;67.23;97846.00;5089548;28;20032;-68
2022/02/18 10:53:14;;;;;;;7.70;1.73;;;;;;;12.85;66.82;97840.72;5090159;28;20025;-69
2022/02/18 10:55:52;;;;;;;3.03;0.90;;;;;;;12.83;66.62;97851.44;5089215;28;20040;-69
2022/02/18 10:58:21;;;;;;;0.80;0.80;;;;;;;12.81;66.42;97856.00;5089184;28;20620;-70
2022/02/18 11:00:46;;;;;;;2.25;1.10;;;;;;;12.78;66.23;97847.53;5089412;28;20035;-69
2022/02/18 11:03:24;;;;;;;1.23;0.80;;;;;;;12.71;66.84;97847.22;5089755;28;20032;-69
2022/02/18 11:05:50;;;;;;;2.08;1.00;;;;;;;12.67;66.99;97829.97;5089292;28;20139;-69
2022/02/18 11:08:30;;;;;;;2.70;1.05;;;;;;;12.69;67.26;97835.94;5089423;28;20516;-70
2022/02/18 11:10:56;;;;;;;5.85;1.05;;;;;;;12.71;66.92;97818.16;5089334;28;20101;-69
2022/02/18 11:13:22;;;;;;;1.08;1.00;;;;;;;12.72;67.04;97806.59;5089616;28;20097;-69
2022/02/18 11:15:47;;;;;;;1.00;0.90;;;;;;;12.73;67.43;97804.81;5088957;28;20117;-69
2022/02/18 11:18:14;;;;;;;2.30;1.23;;;;;;;12.73;67.10;97810.09;5089133;28;20020;-70
2022/02/18 11:20:40;;;;;;;0.82;0.80;;;;;;;12.65;67.58;97803.69;5087599;28;20036;-70
2022/02/18 11:23:06;;;;;;;0.95;0.88;;;;;;;12.65;67.25;97816.91;5087445;28;20483;-70
2022/02/18 11:25:32;;;;;;;1.10;1.00;;;;;;;12.62;67.68;97798.66;5086783;28;20043;-69
2022/02/18 11:27:57;;;;;;;1.48;1.38;;;;;;;12.56;68.57;97808.94;5089091;28;20036;-69
2022/02/18 11:30:23;;;;;;;0.80;0.80;;;;;;;12.52;67.98;97784.59;5088675;28;20066;-69